Time;durP1;ratioP1;P1;durP2;ratioP2;P2;SDS_P1;SDS_P2;PMS_P1;PMS_P2;Temp;Humidity;BMP_temperature;BMP_pressure;BME280_temperature;BME280_humidity;BME280_pressure;Samples;Min_cycle;Max_cycle;Signal;HPM_P1;HPM_P2
2021/08/15 00:00:09;;;;;;;7.80;6.80;;;;;;;22.14;66.03;96860.84;5031750;28;20515;-79
2021/08/15 00:02:37;;;;;;;10.95;7.38;;;;;;;22.12;65.77;96862.16;5031816;28;20049;-79
2021/08/15 00:05:07;;;;;;;8.95;6.97;;;;;;;22.10;65.81;96858.94;5032023;28;20081;-79
2021/08/15 00:07:36;;;;;;;7.70;6.68;;;;;;;22.09;66.16;96862.66;5034815;28;20048;-79
2021/08/15 00:10:04;;;;;;;11.85;7.85;;;;;;;22.09;65.68;96858.16;5035015;28;20140;-80
2021/08/15 00:12:32;;;;;;;10.23;7.38;;;;;;;22.11;65.99;96861.38;5035381;28;20050;-79
2021/08/15 00:14:59;;;;;;;12.88;7.70;;;;;;;22.11;65.72;96853.41;5035687;28;20119;-79
2021/08/15 00:17:27;;;;;;;10.75;7.90;;;;;;;22.11;65.67;96849.94;5035822;28;20124;-79
2021/08/15 00:19:55;;;;;;;10.65;7.10;;;;;;;22.09;66.02;96847.53;5035945;28;20049;-78
2021/08/15 00:22:22;;;;;;;10.57;7.70;;;;;;;22.10;66.12;96849.13;5034440;28;20634;-78
2021/08/15 00:24:52;;;;;;;7.65;6.90;;;;;;;22.11;66.13;96844.63;5035654;28;20053;-79
2021/08/15 00:27:19;;;;;;;8.45;7.55;;;;;;;22.10;65.99;96840.34;5034989;28;20060;-79
2021/08/15 00:29:47;;;;;;;10.43;7.25;;;;;;;22.09;65.89;96836.09;5035594;28;20065;-79
2021/08/15 00:32:14;;;;;;;10.32;7.25;;;;;;;22.08;66.03;96832.63;5035268;28;20507;-80
2021/08/15 00:34:42;;;;;;;11.50;7.88;;;;;;;22.03;66.06;96829.91;5033928;28;20057;-79
2021/08/15 00:37:09;;;;;;;10.02;7.30;;;;;;;21.99;66.22;96828.81;5039869;28;20048;-80
2021/08/15 00:39:37;;;;;;;13.68;7.90;;;;;;;21.94;66.02;96824.25;5054906;28;20061;-79
2021/08/15 00:42:06;;;;;;;8.85;7.72;;;;;;;21.92;66.22;96826.34;5055187;28;20049;-80
2021/08/15 00:44:33;;;;;;;8.45;7.55;;;;;;;21.92;66.54;96823.69;5054084;28;20049;-78
2021/08/15 00:47:01;;;;;;;9.93;7.28;;;;;;;21.92;66.77;96823.69;5023575;28;20045;-79
2021/08/15 00:49:28;;;;;;;13.77;7.80;;;;;;;21.91;66.54;96821.28;5035183;28;20057;-80
2021/08/15 00:51:56;;;;;;;10.43;7.43;;;;;;;21.88;66.52;96819.94;5034833;28;20056;-79
2021/08/15 00:54:23;;;;;;;9.55;8.10;;;;;;;21.87;66.55;96817.53;5034820;28;20049;-78
2021/08/15 00:56:51;;;;;;;8.68;7.70;;;;;;;21.85;66.88;96816.97;5034831;28;20044;-79
2021/08/15 00:59:20;;;;;;;13.80;7.57;;;;;;;21.81;66.96;96812.16;5015803;28;20466;-79
2021/08/15 01:01:50;;;;;;;8.88;7.45;;;;;;;21.77;66.84;96813.69;5018849;28;20053;-80
2021/08/15 01:04:17;;;;;;;8.10;7.30;;;;;;;;;;5015042;28;20048;-79
2021/08/15 01:06:45;;;;;;;9.25;7.00;;;;;;;21.71;66.97;96809.41;5034659;28;20526;-80
2021/08/15 01:09:12;;;;;;;10.02;7.13;;;;;;;21.68;67.01;96807.22;5033649;28;20049;-79
2021/08/15 01:11:41;;;;;;;9.20;7.22;;;;;;;21.65;67.19;96805.06;5014921;28;20053;-79
2021/08/15 01:14:10;;;;;;;9.80;7.47;;;;;;;21.63;67.08;96807.16;5025932;28;20511;-79
2021/08/15 01:16:42;;;;;;;12.98;7.72;;;;;;;21.62;67.50;96805.56;5028325;28;20053;-79
2021/08/15 01:19:09;;;;;;;9.75;7.53;;;;;;;21.60;66.89;96799.69;5033320;28;20045;-79
2021/08/15 01:21:39;;;;;;;10.10;7.38;;;;;;;21.58;67.63;96804.44;5033889;28;20060;-79
2021/08/15 01:24:07;;;;;;;8.55;7.50;;;;;;;21.57;67.43;96798.31;5034392;28;20058;-79
2021/08/15 01:26:35;;;;;;;10.82;7.45;;;;;;;21.55;67.24;96794.31;5034508;28;20462;-79
2021/08/15 01:29:03;;;;;;;7.75;6.95;;;;;;;21.54;67.75;96795.38;5035713;28;20257;-79
2021/08/15 01:31:31;;;;;;;10.80;8.00;;;;;;;21.51;67.34;96795.88;5033411;28;20108;-79
2021/08/15 01:33:59;;;;;;;9.93;8.15;;;;;;;21.48;67.57;96793.72;5034988;28;20061;-79
2021/08/15 01:36:26;;;;;;;9.52;8.30;;;;;;;21.45;67.79;96794.19;5035170;28;20049;-79
2021/08/15 01:38:54;;;;;;;11.80;7.32;;;;;;;21.44;67.98;96787.28;5034268;28;20119;-79
2021/08/15 01:41:21;;;;;;;11.55;7.25;;;;;;;21.42;68.17;96792.84;5044801;28;20075;-78
2021/08/15 01:43:51;;;;;;;8.93;6.80;;;;;;;21.40;67.80;96795.69;5053625;28;20522;-78
2021/08/15 01:46:22;;;;;;;9.45;7.68;;;;;;;21.38;67.91;96787.19;5042922;28;20060;-79
2021/08/15 01:48:50;;;;;;;8.40;7.43;;;;;;;21.37;68.01;96785.59;5034268;28;20050;-79
2021/08/15 01:51:18;;;;;;;11.82;7.82;;;;;;;21.35;67.88;96790.34;5023379;28;20054;-78
2021/08/15 01:53:49;;;;;;;10.20;7.75;;;;;;;21.35;67.94;96784.22;5020561;28;20045;-82
2021/08/15 01:56:16;;;;;;;8.95;7.15;;;;;;;21.35;67.95;96782.38;5034023;28;20049;-79
2021/08/15 01:58:44;;;;;;;12.00;7.63;;;;;;;21.34;68.04;96778.13;5033544;28;20499;-79
2021/08/15 02:01:15;;;;;;;12.50;8.07;;;;;;;21.32;68.19;96776.78;5033961;28;20053;-79
2021/08/15 02:03:45;;;;;;;8.90;7.28;;;;;;;21.29;68.09;96770.06;5027790;28;20454;-78
2021/08/15 02:06:13;;;;;;;20.50;9.65;;;;;;;21.28;67.92;96773.78;5033284;28;20415;-79
2021/08/15 02:08:41;;;;;;;9.73;7.38;;;;;;;21.24;68.07;96772.69;5033775;28;20053;-79
2021/08/15 02:11:08;;;;;;;11.88;7.50;;;;;;;21.20;68.05;96760.94;5033237;28;20100;-79
2021/08/15 02:13:36;;;;;;;9.23;8.02;;;;;;;21.14;68.10;96772.53;5033241;28;20125;-80
2021/08/15 02:16:03;;;;;;;11.80;7.95;;;;;;;21.11;68.53;96767.72;5032896;28;20041;-79
2021/08/15 02:18:31;;;;;;;9.05;8.15;;;;;;;21.07;68.42;96761.31;5033877;28;20045;-79
2021/08/15 02:21:01;;;;;;;11.43;8.13;;;;;;;21.06;68.81;96763.16;5033056;28;20046;-79
2021/08/15 02:23:28;;;;;;;10.20;7.10;;;;;;;21.03;68.76;96758.31;5032685;28;20049;-80
2021/08/15 02:25:56;;;;;;;14.23;8.18;;;;;;;20.99;68.80;96757.25;5032935;28;20435;-78
2021/08/15 02:28:24;;;;;;;9.18;8.27;;;;;;;20.95;68.75;96764.88;5017479;28;20049;-79
2021/08/15 02:30:51;;;;;;;10.15;8.20;;;;;;;20.96;68.94;96763.00;5022564;28;20072;-81
2021/08/15 02:33:19;;;;;;;10.20;7.63;;;;;;;20.94;68.90;96763.25;5032827;28;20088;-79
2021/08/15 02:35:46;;;;;;;10.02;7.47;;;;;;;20.91;68.88;96763.75;5032721;28;20045;-80
2021/08/15 02:38:15;;;;;;;10.32;8.15;;;;;;;20.88;69.12;96763.41;5032881;28;20045;-80
2021/08/15 02:40:43;;;;;;;9.20;7.57;;;;;;;20.85;69.09;96762.06;5033098;28;20053;-78
2021/08/15 02:43:10;;;;;;;10.52;7.50;;;;;;;20.84;69.07;96763.13;5032781;28;20542;-79
2021/08/15 02:45:38;;;;;;;9.95;7.28;;;;;;;20.80;69.22;96762.00;5032703;28;20423;-79
2021/08/15 02:48:06;;;;;;;11.50;8.00;;;;;;;20.78;69.20;96764.09;5032890;28;20080;-79
2021/08/15 02:50:33;;;;;;;10.32;7.70;;;;;;;20.75;69.06;96754.78;5032256;28;20060;-79
2021/08/15 02:53:01;;;;;;;11.10;7.65;;;;;;;20.75;69.28;96761.91;5032465;28;20419;-80
2021/08/15 02:55:30;;;;;;;10.82;8.07;;;;;;;20.72;69.30;96757.88;5032835;28;20049;-80
2021/08/15 02:57:57;;;;;;;9.68;7.32;;;;;;;20.71;69.35;96763.47;5032994;28;20049;-80
2021/08/15 03:00:25;;;;;;;10.27;8.18;;;;;;;20.67;69.35;96757.03;5032450;28;20052;-79
2021/08/15 03:02:53;;;;;;;8.77;7.68;;;;;;;20.66;69.79;96760.72;5031719;28;20187;-80
2021/08/15 03:05:22;;;;;;;8.65;7.65;;;;;;;20.65;69.83;96756.47;5032242;28;20050;-79
2021/08/15 03:07:49;;;;;;;10.23;8.13;;;;;;;20.64;69.81;96755.66;5032691;28;20053;-80
2021/08/15 03:10:17;;;;;;;9.25;7.35;;;;;;;20.66;69.85;96772.13;5032275;28;20053;-79
2021/08/15 03:12:46;;;;;;;8.95;7.97;;;;;;;20.70;69.46;96769.78;5032255;28;20052;-79
2021/08/15 03:15:14;;;;;;;8.20;7.35;;;;;;;20.70;69.45;96764.50;5031521;28;20042;-79
2021/08/15 03:17:41;;;;;;;9.93;7.70;;;;;;;20.68;69.51;96766.56;5032293;28;20132;-78
2021/08/15 03:20:10;;;;;;;9.43;7.88;;;;;;;20.65;69.64;96764.41;5031546;28;20057;-79
2021/08/15 03:22:38;;;;;;;7.80;7.00;;;;;;;20.58;69.63;96754.78;5031712;28;20176;-79
2021/08/15 03:25:06;;;;;;;12.35;8.05;;;;;;;20.55;69.66;96760.53;5031348;28;20489;-78
2021/08/15 03:27:34;;;;;;;11.57;8.02;;;;;;;20.53;69.85;96752.03;5032271;28;20045;-79
2021/08/15 03:30:04;;;;;;;8.20;7.35;;;;;;;20.52;70.00;96762.88;5032007;28;20045;-79
2021/08/15 03:32:31;;;;;;;10.32;7.93;;;;;;;20.49;69.99;96758.84;5031246;28;20060;-80
2021/08/15 03:34:59;;;;;;;8.00;7.20;;;;;;;20.46;69.83;96761.16;5031871;28;20049;-79
2021/08/15 03:37:26;;;;;;;8.38;7.30;;;;;;;20.46;70.14;96758.53;5032217;28;20061;-79
2021/08/15 03:39:54;;;;;;;8.43;7.03;;;;;;;20.48;70.26;96757.22;5032222;28;20065;-78
2021/08/15 03:42:21;;;;;;;11.90;7.68;;;;;;;20.54;70.34;96758.13;5031445;28;20055;-78
2021/08/15 03:44:49;;;;;;;8.13;7.32;;;;;;;20.57;69.70;96755.84;5032347;28;20076;-79
2021/08/15 03:47:17;;;;;;;13.32;7.88;;;;;;;20.55;69.51;96765.00;5032300;28;20058;-79
2021/08/15 03:49:45;;;;;;;8.00;7.20;;;;;;;20.52;70.23;96758.34;5031675;28;20499;-79
2021/08/15 03:52:12;;;;;;;10.52;7.72;;;;;;;20.51;69.85;96759.41;5032077;28;20049;-79
2021/08/15 03:54:42;;;;;;;9.60;7.05;;;;;;;20.53;70.05;96762.63;5033307;28;20064;-79
2021/08/15 03:57:09;;;;;;;9.55;7.82;;;;;;;20.54;69.51;96758.91;5051922;28;20053;-79
2021/08/15 03:59:36;;;;;;;10.18;6.82;;;;;;;20.51;69.38;96753.28;5050106;28;20053;-79
2021/08/15 04:02:04;;;;;;;11.23;7.55;;;;;;;20.44;69.69;96753.44;5051879;28;20056;-79
2021/08/15 04:04:33;;;;;;;9.52;7.72;;;;;;;20.41;69.79;96753.94;5046992;28;20046;-79
2021/08/15 04:07:00;;;;;;;10.18;7.22;;;;;;;20.37;69.84;96750.16;5031817;28;20049;-79
2021/08/15 04:09:28;;;;;;;8.63;7.43;;;;;;;20.36;70.04;96759.16;5031742;28;20045;-79
2021/08/15 04:11:55;;;;;;;7.65;6.85;;;;;;;20.42;70.17;96766.13;5031857;28;20045;-79
2021/08/15 04:14:23;;;;;;;8.20;7.15;;;;;;;20.49;69.80;96750.91;5031232;28;20053;-80
2021/08/15 04:16:51;;;;;;;9.57;7.97;;;;;;;20.49;69.40;96755.41;5028982;28;20087;-78
2021/08/15 04:19:18;;;;;;;11.05;6.95;;;;;;;20.47;69.35;96752.19;5031712;28;20056;-80
2021/08/15 04:21:47;;;;;;;8.52;7.63;;;;;;;20.44;69.45;96747.34;5031588;28;20046;-79
2021/08/15 04:24:14;;;;;;;9.20;7.88;;;;;;;20.41;69.50;96742.56;5031273;28;20499;-78
2021/08/15 04:26:44;;;;;;;8.48;7.40;;;;;;;20.37;69.84;96735.06;5031571;28;20545;-80
2021/08/15 04:29:13;;;;;;;7.57;6.88;;;;;;;20.43;70.10;96749.22;5030998;28;20053;-78
2021/08/15 04:31:40;;;;;;;11.23;7.63;;;;;;;20.45;69.32;96746.31;5031608;28;20060;-79
2021/08/15 04:34:08;;;;;;;9.07;7.78;;;;;;;20.42;69.39;96739.63;5031270;28;20427;-79
2021/08/15 04:36:36;;;;;;;13.40;7.82;;;;;;;20.40;69.37;96736.47;5031431;28;20060;-78
2021/08/15 04:39:05;;;;;;;8.60;7.70;;;;;;;20.38;69.40;96744.63;5031460;28;20056;-79
2021/08/15 04:41:32;;;;;;;9.57;7.68;;;;;;;20.35;69.56;96744.31;5030729;28;20053;-79
2021/08/15 04:44:00;;;;;;;9.98;7.07;;;;;;;20.32;69.65;96736.84;5031444;28;20049;-79
2021/08/15 04:46:27;;;;;;;9.45;7.68;;;;;;;20.32;69.64;96745.59;5031377;28;20061;-79
2021/08/15 04:48:55;;;;;;;10.93;8.10;;;;;;;20.31;69.97;96743.16;5031477;28;20046;-79
2021/08/15 04:51:22;;;;;;;8.20;6.75;;;;;;;20.29;69.95;96740.78;5029947;28;20049;-79
2021/08/15 04:53:50;;;;;;;9.95;6.95;;;;;;;20.33;69.93;96741.91;5032613;28;20072;-79
2021/08/15 04:56:19;;;;;;;7.60;6.63;;;;;;;20.35;69.80;96739.81;5035180;28;20411;-79
2021/08/15 04:58:46;;;;;;;8.52;7.25;;;;;;;20.36;69.85;96740.63;5035089;28;20057;-78
2021/08/15 05:01:14;;;;;;;8.30;7.28;;;;;;;20.39;70.04;96734.84;5034989;28;20570;-79
2021/08/15 05:03:42;;;;;;;10.70;7.25;;;;;;;20.43;69.88;96741.25;5054356;28;20059;-79
2021/08/15 05:06:10;;;;;;;10.43;7.68;;;;;;;20.44;69.64;96732.25;5035899;28;20057;-78
2021/08/15 05:08:38;;;;;;;9.10;7.25;;;;;;;20.48;70.24;96733.38;5034682;28;20049;-80
2021/08/15 05:11:05;;;;;;;10.93;7.38;;;;;;;20.51;69.74;96724.97;5021481;28;20062;-79
2021/08/15 05:13:34;;;;;;;10.10;7.57;;;;;;;20.56;70.04;96727.69;5032700;28;20057;-80
2021/08/15 05:16:01;;;;;;;10.73;7.53;;;;;;;20.55;69.94;96723.44;5034531;28;20060;-79
2021/08/15 05:18:29;;;;;;;8.50;7.55;;;;;;;20.57;69.68;96721.38;5034504;28;20041;-79
2021/08/15 05:20:56;;;;;;;9.05;7.05;;;;;;;20.60;69.61;96724.56;5033685;28;20419;-80
2021/08/15 05:23:24;;;;;;;10.23;8.23;;;;;;;20.61;69.22;96718.25;5034149;28;20057;-79
2021/08/15 05:25:51;;;;;;;8.82;7.05;;;;;;;20.61;69.44;96723.53;5034458;28;20057;-79
2021/08/15 05:28:19;;;;;;;10.45;7.25;;;;;;;20.60;69.48;96720.09;5034391;28;20045;-79
2021/08/15 05:30:47;;;;;;;8.20;6.72;;;;;;;20.62;70.12;96715.34;5034266;28;20049;-79
2021/08/15 05:33:15;;;;;;;12.52;7.32;;;;;;;20.66;69.48;96724.44;5032622;28;20473;-79
2021/08/15 05:35:43;;;;;;;9.10;6.55;;;;;;;20.70;69.38;96724.72;5034417;28;20049;-79
2021/08/15 05:38:10;;;;;;;9.63;7.18;;;;;;;20.73;69.15;96724.25;5034226;28;20045;-79
2021/08/15 05:40:38;;;;;;;8.27;7.30;;;;;;;20.74;68.99;96725.84;5034232;28;20056;-79
2021/08/15 05:43:05;;;;;;;8.95;7.78;;;;;;;20.75;68.96;96722.97;5033565;28;20400;-79
2021/08/15 05:45:33;;;;;;;12.15;7.97;;;;;;;20.77;69.12;96717.41;5033357;28;20045;-78
2021/08/15 05:48:02;;;;;;;7.97;7.18;;;;;;;20.78;69.01;96719.81;5033638;28;20554;-79
2021/08/15 05:50:29;;;;;;;9.50;7.38;;;;;;;20.82;68.89;96722.78;5033952;28;20046;-79
2021/08/15 05:52:57;;;;;;;11.55;7.25;;;;;;;20.83;69.16;96721.72;5033544;28;20550;-80
2021/08/15 05:55:24;;;;;;;9.57;6.95;;;;;;;20.87;69.25;96717.53;5033765;28;20053;-78
2021/08/15 05:57:52;;;;;;;9.73;7.38;;;;;;;20.93;69.13;96719.22;5030671;28;20060;-79
2021/08/15 06:00:20;;;;;;;8.40;6.97;;;;;;;20.99;69.53;96718.25;5033780;28;20088;-79
2021/08/15 06:02:48;;;;;;;8.40;7.30;;;;;;;21.04;69.07;96714.88;5033156;28;20057;-79
2021/08/15 06:05:18;;;;;;;12.18;7.28;;;;;;;21.07;68.75;96711.72;5033202;28;20050;-79
2021/08/15 06:07:45;;;;;;;8.57;7.38;;;;;;;21.15;69.05;96723.75;5032794;28;20049;-79
2021/08/15 06:10:13;;;;;;;9.02;7.03;;;;;;;21.22;68.84;96716.41;5032915;28;20045;-80
2021/08/15 06:12:40;;;;;;;9.38;7.28;;;;;;;21.27;68.66;96713.81;5031360;28;20057;-75
2021/08/15 06:15:12;;;;;;;8.77;6.63;;;;;;;21.35;68.32;96720.53;5033151;28;20057;-75
2021/08/15 06:17:40;;;;;;;7.32;6.63;;;;;;;21.45;68.36;96719.88;5032589;28;20049;-76
2021/08/15 06:20:08;;;;;;;7.75;6.95;;;;;;;21.56;68.20;96724.28;5032442;28;20049;-75
2021/08/15 06:22:41;;;;;;;9.13;7.20;;;;;;;21.67;67.75;96723.34;5033049;28;20053;-76
2021/08/15 06:25:10;;;;;;;6.78;5.95;;;;;;;21.79;67.58;96723.97;5032913;28;20049;-75
2021/08/15 06:27:42;;;;;;;10.63;7.32;;;;;;;21.90;66.97;96724.09;5032813;28;20107;-75
2021/08/15 06:30:10;;;;;;;7.78;6.78;;;;;;;22.01;66.67;96731.09;5021523;28;20048;-76
2021/08/15 06:32:44;;;;;;;8.57;7.15;;;;;;;22.10;66.59;96729.56;5016919;28;20061;-75
2021/08/15 06:35:12;;;;;;;8.77;7.35;;;;;;;22.18;66.19;96733.63;5027633;28;20045;-76
2021/08/15 06:37:41;;;;;;;11.02;6.90;;;;;;;22.26;65.70;96735.03;5030533;28;20048;-76
2021/08/15 06:40:10;;;;;;;7.50;6.30;;;;;;;22.35;66.22;96736.22;5023205;28;20527;-81
2021/08/15 06:42:37;;;;;;;7.25;6.25;;;;;;;22.46;65.69;96731.78;5013469;28;20054;-79
2021/08/15 06:45:06;;;;;;;8.60;7.05;;;;;;;22.56;65.43;96732.63;5023843;28;20053;-77
2021/08/15 06:47:34;;;;;;;8.68;7.50;;;;;;;22.65;64.99;96729.50;5032095;28;20120;-76
2021/08/15 06:50:03;;;;;;;8.27;7.32;;;;;;;22.75;65.36;96727.72;5032486;28;20045;-78
2021/08/15 06:52:30;;;;;;;7.55;6.65;;;;;;;22.85;65.64;96732.31;5032595;28;20046;-78
2021/08/15 06:55:00;;;;;;;11.05;7.38;;;;;;;22.96;65.34;96731.31;5033756;28;20515;-81
2021/08/15 06:57:27;;;;;;;10.32;6.80;;;;;;;23.07;65.19;96723.41;5021888;28;20527;-79
2021/08/15 06:59:55;;;;;;;10.48;6.78;;;;;;;23.19;64.77;96731.97;5014624;28;20046;-79
2021/08/15 07:02:23;;;;;;;7.28;6.55;;;;;;;23.29;64.84;96724.03;5028191;28;20050;-78
2021/08/15 07:04:50;;;;;;;7.75;6.60;;;;;;;23.37;64.33;96720.88;5033217;28;20103;-77
2021/08/15 07:07:18;;;;;;;8.38;6.78;;;;;;;23.48;64.08;96713.72;5013384;28;20054;-77
2021/08/15 07:09:45;;;;;;;9.13;7.20;;;;;;;23.58;63.59;96712.97;5012847;28;20056;-75
2021/08/15 07:12:14;;;;;;;7.18;6.47;;;;;;;23.69;63.03;96714.59;5013641;28;20507;-75
2021/08/15 07:14:42;;;;;;;9.43;7.00;;;;;;;23.79;62.54;96711.97;5012114;28;20049;-75
2021/08/15 07:17:10;;;;;;;7.57;6.75;;;;;;;23.92;62.49;96709.84;5011858;28;20054;-76
2021/08/15 07:19:37;;;;;;;7.88;7.00;;;;;;;24.02;62.29;96712.53;5012623;28;20065;-76
2021/08/15 07:22:04;;;;;;;8.45;6.65;;;;;;;24.12;62.03;96709.06;5014124;28;20526;-77
2021/08/15 07:24:32;;;;;;;9.77;6.50;;;;;;;24.24;61.95;96710.41;5032004;28;20519;-75
2021/08/15 07:27:00;;;;;;;8.32;7.43;;;;;;;24.34;61.69;96708.84;5033585;28;20054;-76
2021/08/15 07:29:29;;;;;;;9.90;8.23;;;;;;;24.46;61.04;96706.69;5047956;28;20056;-75
2021/08/15 07:31:57;;;;;;;7.85;7.05;;;;;;;24.57;60.83;96708.28;5049542;28;20049;-75
2021/08/15 07:34:24;;;;;;;10.25;6.90;;;;;;;24.67;60.44;96702.94;5040522;28;20099;-75
2021/08/15 07:36:52;;;;;;;10.20;6.95;;;;;;;24.78;60.29;96703.72;5033494;28;20083;-77
2021/08/15 07:39:19;;;;;;;11.05;6.40;;;;;;;24.89;59.38;96701.84;5030462;28;20053;-75
2021/08/15 07:41:47;;;;;;;8.05;7.00;;;;;;;24.98;59.14;96702.88;5030015;28;20061;-76
2021/08/15 07:44:14;;;;;;;7.20;6.40;;;;;;;25.08;58.37;96708.19;5032221;28;20060;-76
2021/08/15 07:46:43;;;;;;;8.82;6.88;;;;;;;25.19;58.35;96705.47;5031670;28;20068;-78
2021/08/15 07:49:11;;;;;;;7.57;6.78;;;;;;;25.29;57.64;96700.13;5032170;28;20140;-75
2021/08/15 07:51:38;;;;;;;8.18;7.38;;;;;;;25.41;57.46;96705.16;5031562;28;20052;-78
2021/08/15 07:54:07;;;;;;;7.05;6.35;;;;;;;25.51;57.65;96699.75;5030466;28;20054;-78
2021/08/15 07:56:34;;;;;;;7.60;6.80;;;;;;;25.63;57.66;96696.78;5030080;28;20053;-78
2021/08/15 07:59:02;;;;;;;8.43;6.50;;;;;;;25.75;56.89;96699.88;5030184;28;20104;-78
2021/08/15 08:01:33;;;;;;;7.28;5.65;;;;;;;25.89;56.74;96695.56;5030238;28;20049;-77
2021/08/15 08:04:02;;;;;;;7.13;6.43;;;;;;;26.04;56.35;96697.34;5029861;28;20549;-77
2021/08/15 08:06:30;;;;;;;9.77;5.97;;;;;;;26.16;55.38;96694.28;5030043;28;20057;-77
2021/08/15 08:08:57;;;;;;;9.27;6.10;;;;;;;26.28;54.84;96680.53;5030462;28;20421;-77
2021/08/15 08:11:24;;;;;;;6.72;5.93;;;;;;;26.39;53.94;96681.25;5032248;28;20056;-78
2021/08/15 08:13:52;;;;;;;8.40;6.18;;;;;;;26.50;53.38;96677.41;5031626;28;20057;-78
2021/08/15 08:16:20;;;;;;;10.70;6.00;;;;;;;26.64;52.57;96673.03;5029042;28;20499;-77
2021/08/15 08:18:49;;;;;;;6.68;5.97;;;;;;;26.77;51.97;96666.22;5026330;28;20045;-76
2021/08/15 08:21:18;;;;;;;6.28;5.68;;;;;;;26.88;52.46;96666.91;5031642;28;20050;-76
2021/08/15 08:23:46;;;;;;;12.75;9.38;;;;;;;26.98;51.93;96672.13;5028480;28;20125;-77
2021/08/15 08:26:14;;;;;;;25.50;18.67;;;;;;;27.09;52.11;96662.91;5031266;28;20053;-76
2021/08/15 08:28:41;;;;;;;12.98;9.15;;;;;;;27.20;50.86;96663.59;5034426;28;20542;-77
2021/08/15 08:31:09;;;;;;;6.82;6.07;;;;;;;27.31;50.83;96664.25;5035228;28;20045;-78
2021/08/15 08:33:36;;;;;;;9.70;6.00;;;;;;;27.43;50.65;96667.31;5034955;28;20423;-78
2021/08/15 08:36:04;;;;;;;6.85;6.15;;;;;;;27.55;50.54;96666.91;5035339;28;20049;-77
2021/08/15 08:38:33;;;;;;;9.88;6.05;;;;;;;27.66;49.89;96672.88;5035309;28;20495;-77
2021/08/15 08:41:01;;;;;;;9.02;5.70;;;;;;;27.77;49.35;96668.19;5035616;28;20141;-78
2021/08/15 08:43:29;;;;;;;5.68;5.05;;;;;;;27.87;47.33;96674.22;5035094;28;20050;-77
2021/08/15 08:45:56;;;;;;;6.88;4.85;;;;;;;27.97;47.45;96673.28;5035517;28;20052;-78
2021/08/15 08:48:25;;;;;;;7.38;5.30;;;;;;;28.08;47.05;96676.59;5035433;28;20098;-77
2021/08/15 08:50:53;;;;;;;7.45;5.38;;;;;;;28.15;45.74;96672.44;5037146;28;20041;-78
2021/08/15 08:53:22;;;;;;;7.53;5.20;;;;;;;28.22;47.90;96672.06;5036336;28;20065;-79
2021/08/15 08:55:51;;;;;;;8.93;5.20;;;;;;;28.27;47.28;96672.00;5038124;28;20057;-78
2021/08/15 08:58:18;;;;;;;6.10;4.97;;;;;;;28.35;46.46;96660.56;5036128;28;20060;-77
2021/08/15 09:00:49;;;;;;;16.25;13.05;;;;;;;28.49;46.37;96654.47;5034710;28;20057;-77
2021/08/15 09:03:17;;;;;;;8.32;5.47;;;;;;;28.62;46.05;96652.88;5034389;28;20115;-77
2021/08/15 09:05:51;;;;;;;6.45;5.75;;;;;;;28.79;46.47;96663.06;5034866;28;20050;-78
2021/08/15 09:08:27;;;;;;;6.22;5.63;;;;;;;28.92;45.71;96656.88;5035099;28;20049;-78
2021/08/15 09:11:10;;;;;;;7.40;5.75;;;;;;;29.06;45.37;96655.00;5034890;28;20099;-77
2021/08/15 09:13:38;;;;;;;13.00;7.68;;;;;;;29.16;45.98;96643.28;5057182;22;20565;-78
2021/08/15 09:16:05;;;;;;;9.15;6.43;;;;;;;29.22;46.56;96646.66;5055634;28;20065;-77
2021/08/15 09:18:33;;;;;;;6.70;5.78;;;;;;;29.29;46.38;96638.97;5056006;28;20091;-77
2021/08/15 09:21:01;;;;;;;9.70;5.90;;;;;;;29.34;46.86;96641.53;5056116;28;20052;-77
2021/08/15 09:23:30;;;;;;;10.55;6.57;;;;;;;29.38;46.44;96632.56;5057203;28;20055;-78
2021/08/15 09:26:16;;;;;;;7.53;5.93;;;;;;;29.40;47.00;96624.22;5054508;28;20419;-71
2021/08/15 09:28:45;;;;;;;6.38;5.72;;;;;;;29.40;46.91;96634.19;5054174;28;20056;-71
2021/08/15 09:31:19;;;;;;;8.63;7.03;;;;;;;29.36;46.33;96626.72;5053813;28;20049;-72
2021/08/15 09:33:47;;;;;;;9.52;6.15;;;;;;;29.36;46.53;96629.41;5053518;28;20124;-72
2021/08/15 09:36:24;;;;;;;7.53;6.03;;;;;;;29.44;45.65;96622.53;5053803;28;20462;-73
2021/08/15 09:38:57;;;;;;;8.20;5.57;;;;;;;29.48;45.53;96623.50;5053507;28;20079;-79
2021/08/15 09:41:32;;;;;;;7.93;6.10;;;;;;;29.65;44.93;96619.38;5055347;28;20125;-77
2021/08/15 09:44:20;;;;;;;5.75;5.13;;;;;;;29.81;44.83;96617.16;5054535;28;20060;-78
2021/08/15 09:47:12;;;;;;;8.60;5.70;;;;;;;29.98;44.66;96622.66;5056380;28;20048;-78
2021/08/15 09:49:43;;;;;;;11.38;5.63;;;;;;;29.99;43.47;96614.25;5040531;28;20055;-77
2021/08/15 09:52:12;;;;;;;8.68;5.63;;;;;;;30.00;43.75;96609.69;5052404;28;20048;-80
2021/08/15 09:54:40;;;;;;;7.15;5.97;;;;;;;30.08;43.62;96602.78;5057083;28;20049;-80
2021/08/15 09:57:28;;;;;;;8.75;5.88;;;;;;;30.16;43.59;96610.09;5056867;28;20045;-78
2021/08/15 09:59:55;;;;;;;8.80;6.18;;;;;;;30.26;43.96;96604.44;5055911;28;20049;-79
2021/08/15 10:02:23;;;;;;;7.18;5.78;;;;;;;30.36;43.73;96601.53;5056023;28;20561;-78
2021/08/15 10:04:51;;;;;;;8.20;5.72;;;;;;;30.45;43.37;96592.69;5055246;28;20056;-79
2021/08/15 10:07:19;;;;;;;7.93;5.90;;;;;;;30.53;43.04;96592.75;5054840;28;20049;-78
2021/08/15 10:09:47;;;;;;;9.63;5.82;;;;;;;30.58;42.83;96594.50;5054601;28;20049;-80
2021/08/15 10:12:16;;;;;;;9.38;5.72;;;;;;;30.63;43.47;96588.97;5054710;28;20045;-79
2021/08/15 10:14:43;;;;;;;7.72;5.35;;;;;;;30.64;42.96;96579.78;5054524;28;20052;-81
2021/08/15 10:17:15;;;;;;;39.72;34.60;;;;;;;30.62;42.91;96582.00;5055163;28;20049;-79
2021/08/15 10:19:46;;;;;;;13.27;10.68;;;;;;;30.64;43.21;96576.31;5055108;28;20053;-80
2021/08/15 10:22:20;;;;;;;11.52;6.28;;;;;;;30.63;43.41;96578.19;5054574;28;20071;-81
2021/08/15 10:24:50;;;;;;;9.98;6.70;;;;;;;30.61;43.42;96575.00;5054642;28;20490;-81
2021/08/15 10:27:45;;;;;;;9.02;6.07;;;;;;;30.58;43.08;96571.06;5040518;28;20434;-78
2021/08/15 10:30:47;;;;;;;6.80;6.20;;;;;;;30.62;43.27;96576.63;5034782;28;20053;-80
2021/08/15 10:33:20;;;;;;;8.15;5.35;;;;;;;30.65;43.45;96573.28;5033990;28;20076;-78
2021/08/15 10:36:19;;;;;;;9.48;5.93;;;;;;;30.71;43.63;96576.66;5034192;28;20765;-80
2021/08/15 10:38:48;;;;;;;8.73;6.28;;;;;;;30.75;41.68;96566.84;5037487;28;20060;-80
2021/08/15 10:41:50;;;;;;;6.53;5.93;;;;;;;30.76;42.18;96569.19;5036049;28;20053;-79
2021/08/15 10:44:20;;;;;;;5.97;5.38;;;;;;;30.78;43.11;96563.50;5036558;28;20057;-80
2021/08/15 10:47:12;;;;;;;6.55;5.88;;;;;;;30.80;43.51;96559.41;5036645;28;20132;-80
2021/08/15 10:50:02;;;;;;;9.00;5.88;;;;;;;30.82;43.14;96552.91;5036069;28;20049;-79
2021/08/15 10:52:34;;;;;;;7.78;5.35;;;;;;;30.84;43.48;96556.09;5034825;28;20046;-80
2021/08/15 10:55:04;;;;;;;15.68;12.63;;;;;;;30.89;42.70;96547.88;5035266;28;20054;-80
2021/08/15 10:57:47;;;;;;;10.32;6.22;;;;;;;30.87;39.96;96561.66;5034447;28;20045;-80
2021/08/15 11:00:51;;;;;;;8.90;5.97;;;;;;;30.78;40.36;96558.91;5034304;28;20057;-81
2021/08/15 11:03:39;;;;;;;7.15;5.30;;;;;;;30.75;41.68;96546.09;5036092;28;20041;-78
2021/08/15 11:06:45;;;;;;;9.35;5.80;;;;;;;30.70;42.26;96546.25;5035196;28;20431;-79
2021/08/15 11:09:13;;;;;;;8.27;5.85;;;;;;;30.69;42.23;96541.94;5034368;28;20087;-78
2021/08/15 11:12:06;;;;;;;9.65;5.60;;;;;;;30.65;42.48;96546.38;5033456;28;20052;-78
2021/08/15 11:14:34;;;;;;;12.63;6.63;;;;;;;30.66;42.32;96545.28;5033439;28;20430;-79
2021/08/15 11:17:15;;;;;;;7.78;5.95;;;;;;;30.67;42.88;96546.06;5033724;28;20061;-77
2021/08/15 11:19:44;;;;;;;9.30;6.03;;;;;;;30.67;42.08;96552.22;5033414;28;20450;-78
2021/08/15 11:22:17;;;;;;;11.93;6.00;;;;;;;30.68;42.75;96548.44;5032844;28;20053;-79
2021/08/15 11:24:51;;;;;;;7.20;5.93;;;;;;;30.69;43.07;96541.16;5035784;28;20045;-77
2021/08/15 11:27:27;;;;;;;8.57;5.88;;;;;;;30.69;43.22;96539.25;5052280;28;20057;-78
2021/08/15 11:29:56;;;;;;;11.85;8.80;;;;;;;30.67;42.26;96530.69;5052746;28;20056;-78
2021/08/15 11:32:27;;;;;;;9.07;6.70;;;;;;;30.66;42.45;96539.09;5052408;28;20067;-80
2021/08/15 11:34:57;;;;;;;8.60;5.80;;;;;;;30.57;42.41;96526.41;5053998;28;20040;-83
2021/08/15 11:37:26;;;;;;;12.10;6.28;;;;;;;30.53;43.74;96513.88;5051775;28;20057;-77
2021/08/15 11:39:55;;;;;;;8.80;6.25;;;;;;;30.50;43.59;96514.50;5052813;28;20057;-82
2021/08/15 11:42:24;;;;;;;7.75;5.97;;;;;;;30.52;42.96;96517.66;5053244;28;20056;-81